Cosco Aden — VRKF9 — position and weather

sailwx.info

Track history (hours):
 
Tides and Currents Weather Stations Pressure Air Temp Water Temp Dewpoint Dewpoint Depression Visibility Wind Speed Wind Dir Waves Ship Positions

Cosco Aden

Last reported at 2017-Jun-23 20:33 UTC. Time now 2017-Jun-27 03:37 UTC.
Position N 23°48' E 118°08'.

Length 261 m; draft 12.1 m.

Type: Ship (hazmat cat C). MMSI: 477765900.

Date/timePositionNaut miles runAvg speedWind from/ knotsBaromVisibWave heightAir tempDewpointWater temp
2017-Jun-23 20:33N 23°48' E 118°08'212.3
2017-Jun-23 20:24N 23°49' E 118°09'1412.1
2017-Jun-23 19:13N 24°02' E 118°16'313.1
2017-Jun-23 19:00N 24°05' E 118°16'712.8
2017-Jun-23 18:30N 24°11' E 118°17'613.1
2017-Jun-23 18:00N 24°17' E 118°13'714.4
2017-Jun-23 17:30N 24°22' E 118°08'611.7
2017-Jun-23 17:01N 24°26' E 118°03'510.2
2017-Jun-23 16:30N 24°31' E 118°05'0 0.4
2017-Jun-23 16:00N 24°31' E 118°05'0 0.0
2017-Jun-23 15:30N 24°31' E 118°05'0 0.0
2017-Jun-23 14:54N 24°31' E 118°05'0 0.0
2017-Jun-23 14:00N 24°31' E 118°05'0 0.0
2017-Jun-23 13:27N 24°31' E 118°05'0 0.0
2017-Jun-23 13:00N 24°31' E 118°05'0 0.0
2017-Jun-23 12:30N 24°31' E 118°05'0 0.0
2017-Jun-23 11:57N 24°31' E 118°05'0 0.0
2017-Jun-23 11:30N 24°31' E 118°05'0 0.0
2017-Jun-23 11:00N 24°31' E 118°05'0 0.0
2017-Jun-23 10:30N 24°31' E 118°05'0 0.0
2017-Jun-23 10:00N 24°31' E 118°05'0 0.0
2017-Jun-23 09:30N 24°31' E 118°05'0 0.0
2017-Jun-23 08:57N 24°31' E 118°05'0 0.0
2017-Jun-23 08:30N 24°31' E 118°05'0 0.0
2017-Jun-23 07:57N 24°31' E 118°05'0 0.0
2017-Jun-23 07:27N 24°31' E 118°05'0 0.0
2017-Jun-23 07:00N 24°31' E 118°05'0 0.0
2017-Jun-23 06:27N 24°31' E 118°05'0 0.0
2017-Jun-23 06:00N 24°31' E 118°05'0 0.0
2017-Jun-23 05:24N 24°31' E 118°05'0 0.0
2017-Jun-23 04:57N 24°31' E 118°05'0 0.0
2017-Jun-23 04:30N 24°31' E 118°05'0 0.0
2017-Jun-23 04:00N 24°31' E 118°05'0 0.0
2017-Jun-23 03:27N 24°31' E 118°05'0 0.0
2017-Jun-23 03:00N 24°31' E 118°05'2 4.5
2017-Jun-23 02:30N 24°29' E 118°04'510.0
2017-Jun-23 02:00N 24°24' E 118°06'510.4
2017-Jun-23 01:30N 24°21' E 118°10'713.7
2017-Jun-23 01:01N 24°16' E 118°15'612.4
2017-Jun-23 00:30N 24°14' E 118°22'714.4
2017-Jun-23 00:00N 24°16' E 118°30'918.2
2017-Jun-22 23:30N 24°17' E 118°39'917.9
2017-Jun-22 23:00N 24°21' E 118°48'3317.8
2017-Jun-22 21:10N 24°40' E 119°17'317.8
2017-Jun-22 20:59N 24°42' E 119°20'  
2017-Jun-18 18:18N 37°15' E 122°46'412.3
2017-Jun-18 18:00N 37°18' E 122°46'612.1
2017-Jun-18 17:30N 37°24' E 122°47'612.0
2017-Jun-18 16:58N 37°30' E 122°44'612.2
2017-Jun-18 16:30N 37°35' E 122°40'612.5
2017-Jun-18 15:59N 37°41' E 122°36'613.0
2017-Jun-18 15:30N 37°45' E 122°30'613.0
2017-Jun-18 15:01N 37°49' E 122°24'1313.3
2017-Jun-18 14:00N 37°56' E 122°09'713.5
2017-Jun-18 13:30N 37°59' E 122°02'713.2
2017-Jun-18 13:01N 38°03' E 121°55'713.0
2017-Jun-18 12:30N 38°06' E 121°48'611.5
2017-Jun-18 12:01N 38°09' E 121°42'5 9.6
2017-Jun-18 11:31N 38°12' E 121°37'5 9.4
2017-Jun-18 11:00N 38°15' E 121°32'4 9.2
2017-Jun-18 10:30N 38°17' E 121°27'5 9.2
2017-Jun-18 10:00N 38°19' E 121°22'5 9.2
2017-Jun-18 09:30N 38°22' E 121°17'5 9.6
2017-Jun-18 09:00N 38°24' E 121°12'23 9.6
2017-Jun-18 06:39N 38°34' E 120°46'210.3
2017-Jun-18 06:30N 38°34' E 120°43'510.4
2017-Jun-18 06:00N 38°35' E 120°37'510.6
2017-Jun-18 05:31N 38°36' E 120°30'510.7
2017-Jun-18 05:00N 38°36' E 120°23'612.8
2017-Jun-18 04:30N 38°37' E 120°15'914.9
2017-Jun-18 03:54N 38°38' E 120°04'614.9
2017-Jun-18 03:30N 38°39' E 119°56'715.0
2017-Jun-18 03:00N 38°41' E 119°47'815.4
2017-Jun-18 02:30N 38°42' E 119°37'815.4
2017-Jun-18 02:00N 38°43' E 119°27'815.2
2017-Jun-18 01:31N 38°43' E 119°18'815.0
2017-Jun-18 01:00N 38°45' E 119°08'914.9
2017-Jun-18 00:24N 38°46' E 118°57'614.9
2017-Jun-18 00:00N 38°47' E 118°49'714.6
2017-Jun-17 23:30N 38°48' E 118°40'714.5
2017-Jun-17 23:00N 38°49' E 118°31'814.3
2017-Jun-17 22:26N 38°50' E 118°20'45 1.8
2017-Jun-16 20:50N 38°48' E 119°18'2814.5
2017-Jun-16 18:52N 39°00' E 119°51'614.8
2017-Jun-16 18:28N 39°03' E 119°58'56 2.0
2017-Jun-15 14:48N 38°35' E 121°01'414.0
2017-Jun-15 14:30N 38°33' E 121°05'1614.6
2017-Jun-15 13:25N 38°33' E 121°25'715.1
2017-Jun-15 12:58N 38°33' E 121°34'714.0
2017-Jun-15 12:30N 38°35' E 121°42'815.3
2017-Jun-15 12:01N 38°41' E 121°47'814.7
2017-Jun-15 11:29N 38°48' E 121°52'12 0.9
2017-Jun-14 22:24N 38°59' E 121°55'512.9
2017-Jun-14 21:59N 38°54' E 121°57'713.8
2017-Jun-14 21:30N 38°48' E 121°59'612.0
2017-Jun-14 21:00N 38°43' E 122°03'714.0
2017-Jun-14 20:30N 38°36' E 122°07'713.8
2017-Jun-14 20:00N 38°30' E 122°11'713.3
2017-Jun-14 19:30N 38°24' E 122°15'612.7
2017-Jun-14 19:00N 38°19' E 122°20'612.9
2017-Jun-14 18:30N 38°13' E 122°23'713.1
2017-Jun-14 18:00N 38°07' E 122°27'713.3
2017-Jun-14 17:30N 38°01' E 122°30'713.3
2017-Jun-14 17:00N 37°55' E 122°34'713.5
2017-Jun-14 16:30N 37°49' E 122°37'713.6
2017-Jun-14 16:00N 37°43' E 122°41'1414.0
2017-Jun-14 15:00N 37°30' E 122°49'1014.5
2017-Jun-14 14:18N 37°21' E 122°53'2015.6
2017-Jun-14 13:00N 37°00' E 122°53'  
Track history (hours):
 
Tides and Currents Weather Stations Pressure Air Temp Water Temp Dewpoint Dewpoint Depression Visibility Wind Speed Wind Dir Waves Ship Positions

Cosco Aden

Last reported at 2017-Jun-23 20:33 UTC. Time now 2017-Jun-27 03:37 UTC.
Position N 23°48' E 118°08'.

Length 261 m; draft 12.1 m.

Type: Ship (hazmat cat C). MMSI: 477765900.

Date/timePositionNaut miles runAvg speedWind from/ knotsBaromVisibWave heightAir tempDewpointWater temp
2017-Jun-23 20:33N 23°48' E 118°08'212.3
2017-Jun-23 20:24N 23°49' E 118°09'1412.1
2017-Jun-23 19:13N 24°02' E 118°16'313.1
2017-Jun-23 19:00N 24°05' E 118°16'712.8
2017-Jun-23 18:30N 24°11' E 118°17'613.1
2017-Jun-23 18:00N 24°17' E 118°13'714.4
2017-Jun-23 17:30N 24°22' E 118°08'611.7
2017-Jun-23 17:01N 24°26' E 118°03'510.2
2017-Jun-23 16:30N 24°31' E 118°05'0 0.4
2017-Jun-23 16:00N 24°31' E 118°05'0 0.0
2017-Jun-23 15:30N 24°31' E 118°05'0 0.0
2017-Jun-23 14:54N 24°31' E 118°05'0 0.0
2017-Jun-23 14:00N 24°31' E 118°05'0 0.0
2017-Jun-23 13:27N 24°31' E 118°05'0 0.0
2017-Jun-23 13:00N 24°31' E 118°05'0 0.0
2017-Jun-23 12:30N 24°31' E 118°05'0 0.0
2017-Jun-23 11:57N 24°31' E 118°05'0 0.0
2017-Jun-23 11:30N 24°31' E 118°05'0 0.0
2017-Jun-23 11:00N 24°31' E 118°05'0 0.0
2017-Jun-23 10:30N 24°31' E 118°05'0 0.0
2017-Jun-23 10:00N 24°31' E 118°05'0 0.0
2017-Jun-23 09:30N 24°31' E 118°05'0 0.0
2017-Jun-23 08:57N 24°31' E 118°05'0 0.0
2017-Jun-23 08:30N 24°31' E 118°05'0 0.0
2017-Jun-23 07:57N 24°31' E 118°05'0 0.0
2017-Jun-23 07:27N 24°31' E 118°05'0 0.0
2017-Jun-23 07:00N 24°31' E 118°05'0 0.0
2017-Jun-23 06:27N 24°31' E 118°05'0 0.0
2017-Jun-23 06:00N 24°31' E 118°05'0 0.0
2017-Jun-23 05:24N 24°31' E 118°05'0 0.0
2017-Jun-23 04:57N 24°31' E 118°05'0 0.0
2017-Jun-23 04:30N 24°31' E 118°05'0 0.0
2017-Jun-23 04:00N 24°31' E 118°05'0 0.0
2017-Jun-23 03:27N 24°31' E 118°05'0 0.0
2017-Jun-23 03:00N 24°31' E 118°05'2 4.5
2017-Jun-23 02:30N 24°29' E 118°04'510.0
2017-Jun-23 02:00N 24°24' E 118°06'510.4
2017-Jun-23 01:30N 24°21' E 118°10'713.7
2017-Jun-23 01:01N 24°16' E 118°15'612.4
2017-Jun-23 00:30N 24°14' E 118°22'714.4
2017-Jun-23 00:00N 24°16' E 118°30'918.2
2017-Jun-22 23:30N 24°17' E 118°39'917.9
2017-Jun-22 23:00N 24°21' E 118°48'3317.8
2017-Jun-22 21:10N 24°40' E 119°17'317.8
2017-Jun-22 20:59N 24°42' E 119°20'  
2017-Jun-18 18:18N 37°15' E 122°46'412.3
2017-Jun-18 18:00N 37°18' E 122°46'612.1
2017-Jun-18 17:30N 37°24' E 122°47'612.0
2017-Jun-18 16:58N 37°30' E 122°44'612.2
2017-Jun-18 16:30N 37°35' E 122°40'612.5
2017-Jun-18 15:59N 37°41' E 122°36'613.0
2017-Jun-18 15:30N 37°45' E 122°30'613.0
2017-Jun-18 15:01N 37°49' E 122°24'1313.3
2017-Jun-18 14:00N 37°56' E 122°09'713.5
2017-Jun-18 13:30N 37°59' E 122°02'713.2
2017-Jun-18 13:01N 38°03' E 121°55'713.0
2017-Jun-18 12:30N 38°06' E 121°48'611.5
2017-Jun-18 12:01N 38°09' E 121°42'5 9.6
2017-Jun-18 11:31N 38°12' E 121°37'5 9.4
2017-Jun-18 11:00N 38°15' E 121°32'4 9.2
2017-Jun-18 10:30N 38°17' E 121°27'5 9.2
2017-Jun-18 10:00N 38°19' E 121°22'5 9.2
2017-Jun-18 09:30N 38°22' E 121°17'5 9.6
2017-Jun-18 09:00N 38°24' E 121°12'23 9.6
2017-Jun-18 06:39N 38°34' E 120°46'210.3
2017-Jun-18 06:30N 38°34' E 120°43'510.4
2017-Jun-18 06:00N 38°35' E 120°37'510.6
2017-Jun-18 05:31N 38°36' E 120°30'510.7
2017-Jun-18 05:00N 38°36' E 120°23'612.8
2017-Jun-18 04:30N 38°37' E 120°15'914.9
2017-Jun-18 03:54N 38°38' E 120°04'614.9
2017-Jun-18 03:30N 38°39' E 119°56'715.0
2017-Jun-18 03:00N 38°41' E 119°47'815.4
2017-Jun-18 02:30N 38°42' E 119°37'815.4
2017-Jun-18 02:00N 38°43' E 119°27'815.2
2017-Jun-18 01:31N 38°43' E 119°18'815.0
2017-Jun-18 01:00N 38°45' E 119°08'914.9
2017-Jun-18 00:24N 38°46' E 118°57'614.9
2017-Jun-18 00:00N 38°47' E 118°49'714.6
2017-Jun-17 23:30N 38°48' E 118°40'714.5
2017-Jun-17 23:00N 38°49' E 118°31'814.3
2017-Jun-17 22:26N 38°50' E 118°20'45 1.8
2017-Jun-16 20:50N 38°48' E 119°18'2814.5
2017-Jun-16 18:52N 39°00' E 119°51'614.8
2017-Jun-16 18:28N 39°03' E 119°58'56 2.0
2017-Jun-15 14:48N 38°35' E 121°01'414.0
2017-Jun-15 14:30N 38°33' E 121°05'1614.6
2017-Jun-15 13:25N 38°33' E 121°25'715.1
2017-Jun-15 12:58N 38°33' E 121°34'714.0
2017-Jun-15 12:30N 38°35' E 121°42'815.3
2017-Jun-15 12:01N 38°41' E 121°47'814.7
2017-Jun-15 11:29N 38°48' E 121°52'12 0.9
2017-Jun-14 22:24N 38°59' E 121°55'512.9
2017-Jun-14 21:59N 38°54' E 121°57'713.8
2017-Jun-14 21:30N 38°48' E 121°59'612.0
2017-Jun-14 21:00N 38°43' E 122°03'714.0
2017-Jun-14 20:30N 38°36' E 122°07'713.8
2017-Jun-14 20:00N 38°30' E 122°11'713.3
2017-Jun-14 19:30N 38°24' E 122°15'612.7
2017-Jun-14 19:00N 38°19' E 122°20'612.9
2017-Jun-14 18:30N 38°13' E 122°23'713.1
2017-Jun-14 18:00N 38°07' E 122°27'713.3
2017-Jun-14 17:30N 38°01' E 122°30'713.3
2017-Jun-14 17:00N 37°55' E 122°34'713.5
2017-Jun-14 16:30N 37°49' E 122°37'713.6
2017-Jun-14 16:00N 37°43' E 122°41'1414.0
2017-Jun-14 15:00N 37°30' E 122°49'1014.5
2017-Jun-14 14:18N 37°21' E 122°53'2015.6
2017-Jun-14 13:00N 37°00' E 122°53'  

Dump ship's entire track history